Time;durP1;ratioP1;P1;durP2;ratioP2;P2;SDS_P1;SDS_P2;PMS_P1;PMS_P2;Temp;Humidity;BMP_temperature;BMP_pressure;BME280_temperature;BME280_humidity;BME280_pressure;Samples;Min_cycle;Max_cycle;Signal;HPM_P1;HPM_P2
2021/12/06 00:00:35;;;;;;;51.23;32.33;;;1.30;94.20;;;;;;5074276;28;20760;-93
2021/12/06 00:03:04;;;;;;;51.37;30.87;;;1.30;94.20;;;;;;5075018;28;20169;-93
2021/12/06 00:05:31;;;;;;;51.13;31.00;;;1.30;94.20;;;;;;5074355;28;20203;-93
2021/12/06 00:07:57;;;;;;;46.97;30.47;;;1.30;94.20;;;;;;5073879;28;20221;-93
2021/12/06 00:10:24;;;;;;;47.87;30.50;;;1.30;94.20;;;;;;5074524;28;20544;-94
2021/12/06 00:12:50;;;;;;;50.10;30.87;;;1.30;94.20;;;;;;5074170;28;20182;-93
2021/12/06 00:15:16;;;;;;;45.63;29.73;;;1.30;94.20;;;;;;5074247;28;20182;-93
2021/12/06 00:17:42;;;;;;;47.57;29.90;;;1.30;94.20;;;;;;5072517;28;20183;-92
2021/12/06 00:20:11;;;;;;;50.63;30.23;;;1.20;94.20;;;;;;5073532;28;20252;-93
2021/12/06 00:22:38;;;;;;;46.17;29.10;;;1.20;94.20;;;;;;5074141;28;20654;-93
2021/12/06 00:25:04;;;;;;;47.87;30.60;;;1.30;94.20;;;;;;5073657;28;20179;-93
2021/12/06 00:27:30;;;;;;;45.80;30.23;;;1.20;94.20;;;;;;5073614;28;20197;-92
2021/12/06 00:29:56;;;;;;;50.97;30.67;;;1.20;94.20;;;;;;5072931;28;20182;-93
2021/12/06 00:32:23;;;;;;;43.37;28.93;;;1.20;94.20;;;;;;5073511;28;20186;-93
2021/12/06 00:34:49;;;;;;;42.53;27.13;;;1.20;94.30;;;;;;5073743;28;20210;-93
2021/12/06 00:37:28;;;;;;;42.40;27.40;;;1.20;94.30;;;;;;5073312;28;20237;-94
2021/12/06 00:39:57;;;;;;;42.33;27.33;;;1.20;94.30;;;;;;5072929;28;20220;-93
2021/12/06 00:42:25;;;;;;;38.40;26.60;;;1.20;94.30;;;;;;5073103;28;20182;-93
2021/12/06 00:44:51;;;;;;;43.83;28.23;;;1.20;94.30;;;;;;5074108;28;20221;-93
2021/12/06 00:47:17;;;;;;;44.87;27.60;;;1.20;94.30;;;;;;5074181;28;20206;-94
2021/12/06 00:49:47;;;;;;;46.77;27.83;;;1.10;94.30;;;;;;5074506;28;20182;-93
2021/12/06 00:52:14;;;;;;;43.07;27.63;;;1.10;94.30;;;;;;5074017;28;20174;-93
2021/12/06 00:54:40;;;;;;;43.00;28.03;;;1.10;94.30;;;;;;5073811;28;20172;-92
2021/12/06 00:57:08;;;;;;;43.50;27.77;;;1.10;94.30;;;;;;5072736;28;20562;-92
2021/12/06 00:59:34;;;;;;;42.20;28.20;;;1.10;94.30;;;;;;5072227;28;20174;-92
2021/12/06 01:02:00;;;;;;;44.70;27.10;;;1.10;94.30;;;;;;5072537;28;20175;-92
2021/12/06 01:04:28;;;;;;;43.17;28.30;;;1.10;94.40;;;;;;5072424;28;20189;-92
2021/12/06 01:06:54;;;;;;;52.57;29.67;;;1.20;94.40;;;;;;5072076;28;20568;-92
2021/12/06 01:09:20;;;;;;;39.87;26.83;;;1.20;94.40;;;;;;5073949;28;20174;-92
2021/12/06 01:11:46;;;;;;;39.83;26.83;;;1.20;94.40;;;;;;5072287;28;20177;-93
2021/12/06 01:14:12;;;;;;;40.53;27.20;;;1.20;94.40;;;;;;5072265;28;20242;-91
2021/12/06 01:16:38;;;;;;;42.43;27.70;;;1.10;94.40;;;;;;5072183;28;20310;-93
2021/12/06 01:19:04;;;;;;;42.77;29.10;;;1.10;94.40;;;;;;5093657;22;20664;-89
2021/12/06 01:24:10;;;;;;;41.77;26.40;;;1.20;94.40;;;;;;5075449;28;20215;-88
2021/12/06 01:29:38;;;;;;;43.57;27.03;;;1.20;94.50;;;;;;5076918;28;20186;-88
2021/12/06 01:39:53;;;;;;;37.40;26.50;;;1.20;94.50;;;;;;5077606;28;20526;-89
2021/12/06 01:42:19;;;;;;;40.93;27.40;;;1.10;94.50;;;;;;5076288;28;20170;-89
2021/12/06 01:44:48;;;;;;;41.93;26.73;;;1.10;94.50;;;;;;5075937;28;20642;-87
2021/12/06 01:47:18;;;;;;;42.03;26.60;;;1.10;94.50;;;;;;5075465;28;20209;-89
2021/12/06 01:49:51;;;;;;;41.63;25.70;;;1.10;94.50;;;;;;5075577;28;20183;-90
2021/12/06 01:52:20;;;;;;;40.63;26.43;;;1.10;94.50;;;;;;5076089;28;20163;-90
2021/12/06 01:54:47;;;;;;;44.77;28.53;;;1.10;94.50;;;;;;5075743;28;20188;-90
2021/12/06 01:57:12;;;;;;;46.27;27.90;;;1.10;94.50;;;;;;5075946;28;20638;-90
2021/12/06 01:59:39;;;;;;;48.17;28.30;;;1.10;94.50;;;;;;5075359;28;20236;-90
2021/12/06 02:02:06;;;;;;;41.40;27.50;;;1.10;94.50;;;;;;5075338;28;20178;-90
2021/12/06 02:04:33;;;;;;;42.80;27.70;;;1.10;94.50;;;;;;5075211;28;20181;-90
2021/12/06 02:07:00;;;;;;;42.07;26.87;;;1.00;94.40;;;;;;5074995;28;20240;-89
2021/12/06 02:09:27;;;;;;;42.83;25.43;;;1.10;94.40;;;;;;5075157;28;20195;-89
2021/12/06 02:11:55;;;;;;;40.40;26.87;;;1.10;94.30;;;;;;5075121;28;20264;-86
2021/12/06 02:17:14;;;;;;;43.40;28.40;;;0.90;94.30;;;;;;5076412;28;20252;-88
2021/12/06 02:19:47;;;;;;;42.20;27.13;;;1.00;94.30;;;;;;5075102;28;20197;-86
2021/12/06 02:22:18;;;;;;;44.53;27.77;;;0.90;94.30;;;;;;5076516;28;20156;-88
2021/12/06 02:24:44;;;;;;;43.90;28.30;;;0.90;94.30;;;;;;5074951;28;20176;-88
2021/12/06 02:27:12;;;;;;;39.87;27.83;;;0.90;94.30;;;;;;5075535;28;20287;-89
2021/12/06 02:29:40;;;;;;;41.57;26.83;;;0.90;94.30;;;;;;5074730;28;20265;-89
2021/12/06 02:32:10;;;;;;;42.10;26.83;;;0.90;94.30;;;;;;5075163;28;20178;-88
2021/12/06 02:34:38;;;;;;;43.17;26.73;;;0.90;94.30;;;;;;5075942;28;20155;-89
2021/12/06 02:37:04;;;;;;;43.93;26.53;;;0.90;94.40;;;;;;5074750;28;20189;-89
2021/12/06 02:39:31;;;;;;;42.17;24.60;;;0.90;94.40;;;;;;5074882;28;20204;-89
2021/12/06 02:41:58;;;;;;;42.50;26.77;;;0.80;94.20;;;;;;5075823;28;20187;-89
2021/12/06 02:44:24;;;;;;;33.20;22.53;;;0.80;94.30;;;;;;5074543;28;20555;-89
2021/12/06 02:46:50;;;;;;;37.83;25.33;;;0.80;94.30;;;;;;5074820;28;20236;-88
2021/12/06 02:49:16;;;;;;;42.37;26.47;;;0.70;94.20;;;;;;5074333;28;20198;-89
2021/12/06 02:51:42;;;;;;;41.57;26.67;;;0.70;94.20;;;;;;5075908;28;20596;-88
2021/12/06 02:54:09;;;;;;;43.37;28.27;;;0.70;94.20;;;;;;5075951;28;20191;-88
2021/12/06 02:57:06;;;;;;;44.73;28.70;;;0.80;94.30;;;;;;5075645;28;20164;-90
2021/12/06 02:59:33;;;;;;;38.10;25.93;;;0.70;94.30;;;;;;5074212;28;20574;-89
2021/12/06 03:02:05;;;;;;;36.20;26.33;;;0.80;94.30;;;;;;5075437;28;20202;-89
2021/12/06 03:04:31;;;;;;;37.77;25.97;;;0.80;94.30;;;;;;5074306;28;20178;-89
2021/12/06 03:06:58;;;;;;;39.00;24.30;;;0.80;94.30;;;;;;5074442;28;20225;-89
2021/12/06 03:09:34;;;;;;;37.50;24.67;;;0.80;94.30;;;;;;5074112;28;20220;-88
2021/12/06 03:12:04;;;;;;;35.00;23.50;;;0.80;94.30;;;;;;5074684;28;20173;-89
2021/12/06 03:14:33;;;;;;;32.17;23.80;;;0.80;94.30;;;;;;5074039;28;20190;-88
2021/12/06 03:17:02;;;;;;;31.17;22.90;;;0.80;94.40;;;;;;5074054;28;20266;-88
2021/12/06 03:19:29;;;;;;;36.60;22.57;;;0.70;94.30;;;;;;5073805;28;20233;-88
2021/12/06 03:21:55;;;;;;;33.90;22.40;;;0.70;94.30;;;;;;5073846;28;20258;-89
2021/12/06 03:24:22;;;;;;;39.83;24.77;;;0.70;94.40;;;;;;5073817;28;20182;-89
2021/12/06 03:26:49;;;;;;;36.73;23.23;;;0.70;94.30;;;;;;5073701;28;20187;-88
2021/12/06 03:29:15;;;;;;;39.27;24.63;;;0.70;94.40;;;;;;5073696;28;20202;-88
2021/12/06 03:31:42;;;;;;;35.10;22.83;;;0.70;94.40;;;;;;5074959;28;20178;-89
2021/12/06 03:34:09;;;;;;;33.63;22.23;;;0.70;94.40;;;;;;5073661;28;20181;-87
2021/12/06 03:36:37;;;;;;;37.47;22.73;;;0.60;94.30;;;;;;5074851;28;20176;-88
2021/12/06 03:39:14;;;;;;;32.27;22.90;;;0.60;94.30;;;;;;5073500;28;20295;-88
2021/12/06 03:41:41;;;;;;;32.53;22.03;;;0.60;94.40;;;;;;5073436;28;20165;-89
2021/12/06 03:44:06;;;;;;;34.90;22.93;;;0.50;94.30;;;;;;5074702;28;20549;-88
2021/12/06 03:46:33;;;;;;;37.53;23.90;;;0.50;94.30;;;;;;5073425;28;20184;-89
2021/12/06 03:48:59;;;;;;;31.97;21.77;;;0.50;94.30;;;;;;5074503;28;20289;-88
2021/12/06 03:51:25;;;;;;;34.97;23.27;;;0.50;94.30;;;;;;5072940;28;20263;-89
2021/12/06 03:53:51;;;;;;;34.57;23.00;;;0.40;94.30;;;;;;5073368;28;20599;-88
2021/12/06 03:56:17;;;;;;;32.67;21.40;;;0.50;94.30;;;;;;5073164;28;20177;-88
2021/12/06 03:58:44;;;;;;;35.97;23.33;;;0.50;94.40;;;;;;5072972;28;20290;-88
2021/12/06 04:01:11;;;;;;;39.10;24.53;;;0.40;94.30;;;;;;5073155;28;20645;-88
2021/12/06 04:03:38;;;;;;;37.20;23.67;;;0.50;94.40;;;;;;5073120;28;20188;-88
2021/12/06 04:06:05;;;;;;;32.53;21.47;;;0.40;94.30;;;;;;5074278;28;20180;-88
2021/12/06 04:08:31;;;;;;;40.23;23.47;;;0.30;94.20;;;;;;5072963;28;20267;-88
2021/12/06 04:10:56;;;;;;;42.60;24.83;;;0.30;94.20;;;;;;5072942;28;20177;-88
2021/12/06 04:13:22;;;;;;;43.30;24.53;;;0.30;94.30;;;;;;5072993;28;20717;-88
2021/12/06 04:15:49;;;;;;;40.37;23.77;;;0.30;94.30;;;;;;5072766;28;20189;-87
2021/12/06 04:18:15;;;;;;;36.87;23.80;;;0.30;94.30;;;;;;5072573;28;20618;-87
2021/12/06 04:20:41;;;;;;;36.73;24.17;;;0.30;94.30;;;;;;5072762;28;20188;-89
2021/12/06 04:23:09;;;;;;;39.43;24.63;;;0.30;94.30;;;;;;5072720;28;20274;-88
2021/12/06 04:25:36;;;;;;;38.67;24.00;;;0.30;94.30;;;;;;5073812;28;20177;-87
2021/12/06 04:28:06;;;;;;;40.30;25.47;;;0.30;94.30;;;;;;5073686;28;20262;-87
2021/12/06 04:30:33;;;;;;;42.60;23.80;;;0.30;94.40;;;;;;5073766;28;20152;-88
2021/12/06 04:33:00;;;;;;;38.60;25.37;;;0.30;94.40;;;;;;5072495;28;20178;-87
2021/12/06 04:35:27;;;;;;;40.77;25.23;;;0.30;94.40;;;;;;5073649;28;20663;-88
2021/12/06 04:37:53;;;;;;;42.97;25.30;;;0.30;94.40;;;;;;5073655;28;20209;-87
2021/12/06 04:40:19;;;;;;;39.40;25.17;;;0.30;94.40;;;;;;5072357;28;20190;-87
2021/12/06 04:42:45;;;;;;;47.57;26.00;;;0.30;94.40;;;;;;5072443;28;20226;-88
2021/12/06 04:45:12;;;;;;;45.77;25.03;;;0.30;94.40;;;;;;5073602;28;20186;-87
2021/12/06 04:47:39;;;;;;;37.80;24.57;;;0.30;94.40;;;;;;5072349;28;20560;-87
2021/12/06 04:50:07;;;;;;;50.00;26.80;;;0.30;94.40;;;;;;5072636;28;20269;-88
2021/12/06 04:52:33;;;;;;;43.97;25.77;;;0.20;94.40;;;;;;5072443;28;20182;-88
2021/12/06 04:55:00;;;;;;;39.37;24.90;;;0.20;94.40;;;;;;5073426;28;20650;-88
2021/12/06 04:57:26;;;;;;;42.17;25.93;;;0.20;94.40;;;;;;5073803;28;20183;-88
2021/12/06 04:59:57;;;;;;;41.57;26.07;;;0.20;94.50;;;;;;5073657;28;20179;-87
2021/12/06 05:02:33;;;;;;;41.57;26.93;;;0.20;94.50;;;;;;5072754;28;20219;-88
2021/12/06 05:05:06;;;;;;;46.27;25.40;;;0.30;94.50;;;;;;5073376;28;20226;-87
2021/12/06 05:07:39;;;;;;;45.10;26.53;;;0.30;94.50;;;;;;5073322;28;20201;-87
2021/12/06 05:10:07;;;;;;;46.67;27.00;;;0.30;94.50;;;;;;5072170;28;20173;-87
2021/12/06 05:12:33;;;;;;;50.27;27.17;;;0.30;94.60;;;;;;5072355;28;20245;-87
2021/12/06 05:14:59;;;;;;;42.83;26.07;;;0.20;94.50;;;;;;5072713;28;20642;-87
2021/12/06 05:17:28;;;;;;;40.03;25.17;;;0.20;94.60;;;;;;5071763;28;20214;-87
2021/12/06 05:19:54;;;;;;;44.20;25.90;;;0.10;94.50;;;;;;5071866;28;20175;-87
2021/12/06 05:22:20;;;;;;;42.97;25.37;;;0.10;94.60;;;;;;5073292;28;20223;-87
2021/12/06 05:24:46;;;;;;;39.73;24.93;;;0.10;94.60;;;;;;5073076;28;20190;-87
2021/12/06 05:27:12;;;;;;;43.10;24.53;;;0.10;94.60;;;;;;5073030;28;20203;-87
2021/12/06 05:29:38;;;;;;;35.47;23.40;;;0.00;94.60;;;;;;5071819;28;20191;-87
2021/12/06 05:32:05;;;;;;;33.03;22.20;;;0.00;94.60;;;;;;5071740;28;20183;-87
2021/12/06 05:34:44;;;;;;;33.10;21.43;;;0.00;94.60;;;;;;5072963;28;20226;-87
2021/12/06 05:37:12;;;;;;;31.77;21.90;;;0.00;94.60;;;;;;5071835;28;20188;-87
2021/12/06 05:39:38;;;;;;;38.27;23.87;;;0.00;94.60;;;;;;5072898;28;20638;-87
2021/12/06 05:42:08;;;;;;;37.57;23.60;;;0.00;94.60;;;;;;5071604;28;20193;-87
2021/12/06 05:44:34;;;;;;;37.23;23.93;;;0.00;94.70;;;;;;5071651;28;20182;-87
2021/12/06 05:47:01;;;;;;;36.37;24.10;;;0.00;94.70;;;;;;5072807;28;20235;-87
2021/12/06 05:49:27;;;;;;;45.97;23.80;;;0.00;94.70;;;;;;5071788;28;20687;-87
2021/12/06 05:51:53;;;;;;;38.00;23.17;;;0.00;94.70;;;;;;5072744;28;20200;-88
2021/12/06 05:54:20;;;;;;;37.13;23.17;;;0.00;94.70;;;;;;5071492;28;20182;-86
2021/12/06 05:56:45;;;;;;;35.40;22.73;;;0.00;94.70;;;;;;5071560;28;20176;-87
2021/12/06 05:59:12;;;;;;;32.83;21.17;;;0.10;94.70;;;;;;5072631;28;20200;-87
2021/12/06 06:01:38;;;;;;;40.47;22.40;;;0.20;94.70;;;;;;5072781;28;20262;-87
2021/12/06 06:04:05;;;;;;;39.50;22.47;;;0.20;94.70;;;;;;5071613;28;20215;-87
2021/12/06 06:06:33;;;;;;;40.27;23.63;;;0.20;94.70;;;;;;5072951;28;20171;-87
2021/12/06 06:08:59;;;;;;;40.27;23.07;;;0.30;94.70;;;;;;5071212;28;20218;-87
2021/12/06 06:11:25;;;;;;;36.90;23.80;;;0.30;94.70;;;;;;5072756;28;20210;-87
2021/12/06 06:13:52;;;;;;;36.60;23.43;;;0.30;94.70;;;;;;5073568;28;20172;-87
2021/12/06 06:16:20;;;;;;;38.73;23.80;;;0.30;94.70;;;;;;5075153;28;20180;-86
2021/12/06 06:18:48;;;;;;;39.83;23.77;;;0.30;94.70;;;;;;5075987;28;20706;-87
2021/12/06 06:21:15;;;;;;;41.37;24.70;;;0.40;94.70;;;;;;5075021;28;20213;-85
2021/12/06 06:23:41;;;;;;;43.23;25.70;;;0.40;94.70;;;;;;5074953;28;20187;-85
2021/12/06 06:26:07;;;;;;;42.87;24.37;;;0.30;94.70;;;;;;5074850;28;20273;-87
2021/12/06 06:28:32;;;;;;;44.10;24.77;;;0.30;94.70;;;;;;5074745;28;20303;-87
2021/12/06 06:30:58;;;;;;;42.70;25.00;;;0.30;94.70;;;;;;5074855;28;20173;-86
2021/12/06 06:33:24;;;;;;;38.93;23.97;;;0.30;94.80;;;;;;5074787;28;20174;-87
2021/12/06 06:35:50;;;;;;;37.07;23.57;;;0.30;94.70;;;;;;5075968;28;20209;-86
2021/12/06 06:38:17;;;;;;;46.20;26.37;;;0.30;94.70;;;;;;5075999;28;20566;-87
2021/12/06 06:40:43;;;;;;;35.07;23.63;;;0.30;94.70;;;;;;5075802;28;20202;-87
2021/12/06 06:43:08;;;;;;;41.27;24.50;;;0.30;94.70;;;;;;5074539;28;20185;-87
2021/12/06 06:45:34;;;;;;;35.93;23.90;;;0.30;94.70;;;;;;5074641;28;20185;-87
2021/12/06 06:48:00;;;;;;;37.07;23.37;;;0.30;94.70;;;;;;5074437;28;20304;-88
2021/12/06 06:50:26;;;;;;;37.03;24.00;;;0.30;94.70;;;;;;5074397;28;20722;-86
2021/12/06 06:52:52;;;;;;;36.10;23.63;;;0.30;94.70;;;;;;5074400;28;20173;-87
2021/12/06 06:55:19;;;;;;;40.43;24.00;;;0.40;94.70;;;;;;5075607;28;20211;-88
2021/12/06 06:57:46;;;;;;;38.53;23.33;;;0.40;94.70;;;;;;5075426;28;20201;-87
2021/12/06 07:00:26;;;;;;;32.97;21.90;;;0.40;94.70;;;;;;5074281;28;20182;-87
2021/12/06 07:02:52;;;;;;;37.77;22.13;;;0.40;94.70;;;;;;5075574;28;20174;-87
2021/12/06 07:05:18;;;;;;;32.87;21.50;;;0.30;94.60;;;;;;5075689;28;20171;-87
2021/12/06 07:07:44;;;;;;;35.10;21.27;;;0.30;94.60;;;;;;5075294;28;20207;-87
2021/12/06 07:10:10;;;;;;;37.10;21.83;;;0.30;94.50;;;;;;5074174;28;20267;-87
2021/12/06 07:12:43;;;;;;;34.27;21.30;;;0.30;94.50;;;;;;5075291;28;20176;-87
2021/12/06 07:15:11;;;;;;;36.63;22.37;;;0.30;94.50;;;;;;5075408;28;20160;-86
2021/12/06 07:17:38;;;;;;;35.20;21.97;;;0.30;94.50;;;;;;5073969;28;20353;-87
2021/12/06 07:20:05;;;;;;;35.63;21.17;;;0.20;94.40;;;;;;5074394;28;20178;-87
2021/12/06 07:22:30;;;;;;;35.43;21.50;;;0.20;94.40;;;;;;5075186;28;20178;-87
2021/12/06 07:24:56;;;;;;;39.27;21.80;;;0.20;94.40;;;;;;5073942;28;20202;-87
2021/12/06 07:27:22;;;;;;;37.43;21.97;;;0.20;94.40;;;;;;5073551;28;20203;-87
2021/12/06 07:29:47;;;;;;;35.67;22.37;;;0.20;94.40;;;;;;5075619;28;20537;-87
2021/12/06 07:32:13;;;;;;;38.27;21.90;;;0.20;94.50;;;;;;5074241;28;20174;-88
2021/12/06 07:34:39;;;;;;;36.90;22.67;;;0.30;94.50;;;;;;5074020;28;20225;-87
2021/12/06 07:37:05;;;;;;;35.17;20.90;;;0.30;94.50;;;;;;5074093;28;20263;-87
2021/12/06 07:39:31;;;;;;;32.23;20.97;;;0.30;94.50;;;;;;5075178;28;20194;-88
2021/12/06 07:41:57;;;;;;;31.50;18.73;;;0.30;94.50;;;;;;5073952;28;20230;-87
2021/12/06 07:44:23;;;;;;;33.07;20.63;;;0.30;94.50;;;;;;5074166;28;20177;-87
2021/12/06 07:46:51;;;;;;;29.17;19.27;;;0.40;94.50;;;;;;5075305;28;20197;-88
2021/12/06 07:49:18;;;;;;;27.33;19.33;;;0.40;94.40;;;;;;5075191;28;20191;-87
2021/12/06 07:51:44;;;;;;;31.07;20.60;;;0.40;94.40;;;;;;5075453;28;20185;-88
2021/12/06 07:54:09;;;;;;;28.17;19.10;;;0.40;94.30;;;;;;5075049;28;20195;-87
2021/12/06 07:56:35;;;;;;;29.87;18.90;;;0.40;94.30;;;;;;5074082;28;20270;-87
2021/12/06 07:59:01;;;;;;;32.30;18.63;;;0.40;94.30;;;;;;5073803;28;20257;-87
2021/12/06 08:01:27;;;;;;;30.43;18.27;;;0.40;94.20;;;;;;5075286;28;20171;-87
2021/12/06 08:03:53;;;;;;;29.57;19.60;;;0.40;94.20;;;;;;5074656;28;20175;-88
2021/12/06 08:06:19;;;;;;;31.20;19.23;;;0.50;94.20;;;;;;5073393;28;20179;-87
2021/12/06 08:08:46;;;;;;;30.90;20.37;;;0.50;94.10;;;;;;5074729;28;20265;-88
2021/12/06 08:11:16;;;;;;;30.27;19.60;;;0.50;94.00;;;;;;5073568;28;20177;-87
2021/12/06 08:13:45;;;;;;;32.63;19.70;;;0.50;94.10;;;;;;5073636;28;20171;-87
2021/12/06 08:16:15;;;;;;;30.80;19.73;;;0.40;94.00;;;;;;5074635;28;20665;-87
2021/12/06 08:18:44;;;;;;;30.33;20.00;;;0.40;94.00;;;;;;5074448;28;20222;-87
2021/12/06 08:21:10;;;;;;;30.23;19.67;;;0.40;94.00;;;;;;5074911;28;20670;-86
2021/12/06 08:23:36;;;;;;;30.07;20.63;;;0.40;94.10;;;;;;5073420;28;20461;-87
2021/12/06 08:26:04;;;;;;;32.63;20.77;;;0.40;94.10;;;;;;5074277;28;20212;-87
2021/12/06 08:28:31;;;;;;;31.77;19.37;;;0.40;94.10;;;;;;5074629;28;20209;-88
2021/12/06 08:30:57;;;;;;;29.87;20.73;;;0.40;94.10;;;;;;5074185;28;20175;-88
2021/12/06 08:33:24;;;;;;;32.40;20.37;;;0.30;94.10;;;;;;5075934;28;20175;-86
2021/12/06 08:35:52;;;;;;;27.97;19.10;;;0.30;94.10;;;;;;5075723;28;20659;-87
2021/12/06 08:38:19;;;;;;;30.13;18.83;;;0.30;94.20;;;;;;5074210;28;20265;-88
2021/12/06 08:40:47;;;;;;;32.10;19.33;;;0.40;94.30;;;;;;5075890;28;20180;-89
2021/12/06 08:43:16;;;;;;;30.20;20.33;;;0.40;94.30;;;;;;5075665;28;20203;-88
2021/12/06 08:46:07;;;;;;;27.93;19.83;;;0.40;94.40;;;;;;5074535;28;20706;-86
2021/12/06 08:48:34;;;;;;;30.03;20.73;;;0.40;94.40;;;;;;5068506;28;20267;-88
2021/12/06 08:51:05;;;;;;;37.47;21.17;;;0.40;94.40;;;;;;5073907;28;20250;-87
2021/12/06 08:53:31;;;;;;;34.97;21.13;;;0.40;94.40;;;;;;5074458;28;20177;-88
2021/12/06 08:55:57;;;;;;;33.03;20.93;;;0.40;94.40;;;;;;5075174;28;20257;-88
2021/12/06 08:58:23;;;;;;;29.93;20.40;;;0.40;94.40;;;;;;5073828;28;20238;-88
2021/12/06 09:00:50;;;;;;;31.80;20.80;;;0.40;94.40;;;;;;5074567;28;20194;-86
2021/12/06 09:03:15;;;;;;;30.57;20.67;;;0.40;94.40;;;;;;5074619;28;20210;-87
2021/12/06 09:05:45;;;;;;;34.83;21.70;;;0.40;94.40;;;;;;5074614;28;20193;-86
2021/12/06 09:08:12;;;;;;;36.43;22.73;;;0.40;94.40;;;;;;5075324;28;20228;-87
2021/12/06 09:10:37;;;;;;;34.37;22.50;;;0.40;94.40;;;;;;5075241;28;20229;-86
2021/12/06 09:13:05;;;;;;;33.27;22.47;;;0.40;94.40;;;;;;5076055;28;20543;-87
2021/12/06 09:15:32;;;;;;;31.67;21.73;;;0.40;94.40;;;;;;5074494;28;20180;-86
2021/12/06 09:17:58;;;;;;;33.23;21.47;;;0.40;94.40;;;;;;5074196;28;20221;-88
2021/12/06 09:20:29;;;;;;;30.97;22.03;;;0.50;94.40;;;;;;5075467;28;20178;-87
2021/12/06 09:22:55;;;;;;;29.60;21.87;;;0.50;94.40;;;;;;5074229;28;20194;-87
2021/12/06 09:25:21;;;;;;;36.40;21.03;;;0.50;94.40;;;;;;5076117;28;20190;-88
2021/12/06 09:27:47;;;;;;;31.47;21.20;;;0.60;94.40;;;;;;5074221;28;20211;-86
2021/12/06 09:30:18;;;;;;;33.43;19.83;;;0.50;94.40;;;;;;5074569;28;20176;-87
2021/12/06 09:32:45;;;;;;;30.03;20.60;;;0.60;94.40;;;;;;5073907;28;20172;-88
2021/12/06 09:35:14;;;;;;;33.53;22.00;;;0.60;94.40;;;;;;5073496;28;20203;-88
2021/12/06 09:37:40;;;;;;;30.17;21.67;;;0.60;94.40;;;;;;5073169;28;20207;-88
2021/12/06 09:40:07;;;;;;;30.23;20.13;;;0.60;94.40;;;;;;5072915;28;20365;-89
2021/12/06 09:42:36;;;;;;;31.27;20.87;;;0.60;94.40;;;;;;5072930;28;20266;-88
2021/12/06 09:45:06;;;;;;;34.07;21.97;;;0.60;94.40;;;;;;5072849;28;20186;-88
2021/12/06 09:47:33;;;;;;;31.53;21.50;;;0.60;94.40;;;;;;5073904;28;20201;-89
2021/12/06 09:49:59;;;;;;;30.30;21.67;;;0.70;94.40;;;;;;5075398;28;20215;-88
2021/12/06 09:52:24;;;;;;;28.57;21.17;;;0.70;94.40;;;;;;5078336;28;20253;-88
2021/12/06 09:54:50;;;;;;;34.47;21.23;;;0.70;94.40;;;;;;5076467;28;20176;-88
2021/12/06 09:57:16;;;;;;;36.27;21.30;;;0.70;94.40;;;;;;5076341;28;20196;-89
2021/12/06 09:59:43;;;;;;;29.47;21.27;;;0.70;94.50;;;;;;5076948;28;20267;-88
2021/12/06 10:02:13;;;;;;;27.63;20.30;;;0.80;94.50;;;;;;5077571;28;20210;-89
2021/12/06 10:04:45;;;;;;;32.60;21.43;;;0.80;94.50;;;;;;5076082;28;20184;-88
2021/12/06 10:07:11;;;;;;;33.53;22.40;;;0.80;94.50;;;;;;5077313;28;20159;-89
2021/12/06 10:09:38;;;;;;;37.90;21.53;;;0.90;94.50;;;;;;5076300;28;20290;-90
2021/12/06 10:12:05;;;;;;;33.87;23.40;;;0.90;94.40;;;;;;5076878;28;20221;-88
2021/12/06 10:14:31;;;;;;;37.43;25.03;;;1.00;94.40;;;;;;5077160;28;20171;-90
2021/12/06 10:16:57;;;;;;;39.50;25.57;;;1.00;94.40;;;;;;5076846;28;20560;-90
2021/12/06 10:19:25;;;;;;;43.13;28.23;;;1.10;94.40;;;;;;5076913;28;20232;-90
2021/12/06 10:21:53;;;;;;;48.40;28.93;;;1.10;94.30;;;;;;5075834;28;20269;-88
2021/12/06 10:24:25;;;;;;;42.93;27.63;;;1.10;94.10;;;;;;5076134;28;20183;-87
2021/12/06 10:27:05;;;;;;;49.57;29.80;;;1.10;93.80;;;;;;5075892;28;20171;-90
2021/12/06 10:29:38;;;;;;;49.87;29.50;;;1.10;93.60;;;;;;5076298;28;20747;-87
2021/12/06 10:32:11;;;;;;;47.37;26.97;;;1.20;93.40;;;;;;5076149;28;20167;-89
2021/12/06 10:34:42;;;;;;;44.90;28.47;;;1.20;93.30;;;;;;5076566;28;20762;-87
2021/12/06 10:37:30;;;;;;;45.03;28.27;;;1.20;93.00;;;;;;5077249;28;20162;-89
2021/12/06 10:39:57;;;;;;;44.93;28.47;;;1.10;92.70;;;;;;5076319;28;20242;-90
2021/12/06 10:42:32;;;;;;;50.00;29.63;;;1.10;92.70;;;;;;5075449;28;20275;-89
2021/12/06 10:45:05;;;;;;;46.33;29.63;;;1.20;92.60;;;;;;5076071;28;20640;-91
2021/12/06 10:47:30;;;;;;;53.53;31.00;;;1.20;92.50;;;;;;5076213;28;20229;-89
2021/12/06 10:50:10;;;;;;;48.43;30.10;;;1.20;92.40;;;;;;5074955;28;20247;-90
2021/12/06 10:52:46;;;;;;;51.20;30.80;;;1.30;92.30;;;;;;5076332;28;20700;-89
2021/12/06 10:55:13;;;;;;;49.50;29.50;;;1.20;92.20;;;;;;5074866;28;20170;-92
2021/12/06 10:57:53;;;;;;;48.50;29.57;;;1.20;92.20;;;;;;5074891;28;20609;-90
2021/12/06 11:00:53;;;;;;;54.40;30.70;;;1.30;92.20;;;;;;5073909;28;20547;-91
2021/12/06 11:03:24;;;;;;;46.87;27.27;;;1.40;92.30;;;;;;5054089;28;20677;-91
2021/12/06 11:06:04;;;;;;;44.73;27.57;;;1.40;92.20;;;;;;5075657;28;20173;-89
2021/12/06 11:08:34;;;;;;;48.57;28.97;;;1.30;92.00;;;;;;5075025;28;20209;-90
2021/12/06 11:11:06;;;;;;;47.57;30.50;;;1.20;92.10;;;;;;5075122;28;20274;-90
2021/12/06 11:13:38;;;;;;;51.47;30.23;;;1.20;92.10;;;;;;5075304;28;20178;-91
2021/12/06 11:16:23;;;;;;;50.30;30.60;;;1.30;92.20;;;;;;5074726;28;20177;-89
2021/12/06 11:18:59;;;;;;;47.33;29.07;;;1.20;92.20;;;;;;5074657;28;20218;-89
2021/12/06 11:21:29;;;;;;;53.00;32.63;;;1.30;92.20;;;;;;5074917;28;20169;-91
2021/12/06 11:24:11;;;;;;;54.43;33.40;;;1.30;92.20;;;;;;5074994;28;20170;-89
2021/12/06 11:26:42;;;;;;;56.67;32.73;;;1.20;92.20;;;;;;5074954;28;20178;-90
2021/12/06 11:29:13;;;;;;;58.77;35.13;;;1.30;92.20;;;;;;5074172;28;20685;-89
2021/12/06 11:31:42;;;;;;;53.43;33.40;;;1.20;92.00;;;;;;5075708;28;20162;-90
2021/12/06 11:34:09;;;;;;;57.90;35.07;;;1.30;92.00;;;;;;5074213;28;20173;-91
2021/12/06 11:36:39;;;;;;;56.57;35.07;;;1.20;91.90;;;;;;5074995;28;20175;-90
2021/12/06 11:39:10;;;;;;;53.60;34.00;;;1.20;91.90;;;;;;5074342;28;20678;-93
2021/12/06 11:41:35;;;;;;;51.93;34.77;;;1.20;91.90;;;;;;5075813;28;20193;-92
2021/12/06 11:44:23;;;;;;;58.87;35.17;;;1.10;91.80;;;;;;5074334;28;20552;-91
2021/12/06 11:47:10;;;;;;;60.90;34.10;;;1.10;91.80;;;;;;5075878;28;20174;-91
2021/12/06 11:49:48;;;;;;;60.53;34.67;;;1.10;91.70;;;;;;5074717;28;20650;-91
2021/12/06 11:52:18;;;;;;;52.77;34.23;;;1.10;91.70;;;;;;5074323;28;20589;-90
2021/12/06 11:54:55;;;;;;;57.07;36.07;;;1.00;91.50;;;;;;5074557;28;20183;-90
2021/12/06 11:57:31;;;;;;;59.00;35.60;;;0.90;91.40;;;;;;5074238;28;20179;-91
2021/12/06 12:00:20;;;;;;;57.53;36.07;;;0.80;91.30;;;;;;5074585;28;20198;-91
2021/12/06 12:02:52;;;;;;;53.30;34.27;;;0.90;91.30;;;;;;5074275;28;20188;-91
2021/12/06 12:05:26;;;;;;;59.70;36.80;;;0.80;91.40;;;;;;5073870;28;20175;-91
2021/12/06 12:07:57;;;;;;;57.40;35.37;;;0.80;91.40;;;;;;5073600;28;20210;-91
2021/12/06 12:10:45;;;;;;;59.30;36.23;;;0.90;91.50;;;;;;5074517;28;20172;-92
2021/12/06 12:13:23;;;;;;;56.10;36.60;;;0.90;91.70;;;;;;5073602;28;20544;-92
2021/12/06 12:15:54;;;;;;;62.13;37.67;;;0.90;91.60;;;;;;5073510;28;20516;-90
2021/12/06 12:18:20;;;;;;;60.50;36.50;;;1.00;91.80;;;;;;5073269;28;20269;-89
2021/12/06 12:20:47;;;;;;;56.23;35.70;;;1.00;91.80;;;;;;5074663;28;20560;-89
2021/12/06 12:23:14;;;;;;;57.93;35.93;;;1.00;91.90;;;;;;5073466;28;20604;-89
2021/12/06 12:28:37;;;;;;;55.97;31.43;;;1.00;91.60;;;;;;5070965;28;20773;-88
2021/12/06 12:31:06;;;;;;;52.50;33.07;;;1.00;91.20;;;;;;5073850;28;20174;-93
2021/12/06 12:33:32;;;;;;;59.27;32.80;;;0.90;91.10;;;;;;5072624;28;20638;-92
2021/12/06 12:36:04;;;;;;;54.53;31.77;;;0.90;91.00;;;;;;5072927;28;20260;-90
2021/12/06 12:38:34;;;;;;;56.30;31.47;;;0.80;91.00;;;;;;5073565;28;20250;-92
2021/12/06 12:41:12;;;;;;;50.53;29.93;;;0.80;91.00;;;;;;5073285;28;20177;-93
2021/12/06 12:43:44;;;;;;;48.80;29.33;;;0.80;91.10;;;;;;5073908;28;20238;-92
2021/12/06 12:46:14;;;;;;;60.97;33.10;;;0.80;91.20;;;;;;5073504;28;20213;-91
2021/12/06 12:48:59;;;;;;;52.97;32.17;;;0.80;91.20;;;;;;5075283;28;20237;-92
2021/12/06 12:51:30;;;;;;;57.27;35.00;;;0.90;91.30;;;;;;5073581;28;20170;-92
2021/12/06 12:54:00;;;;;;;62.63;35.70;;;0.90;91.30;;;;;;5073356;28;20176;-92
2021/12/06 12:56:41;;;;;;;59.40;36.23;;;0.90;91.40;;;;;;5073941;28;20715;-92
2021/12/06 12:59:34;;;;;;;61.10;37.10;;;0.90;91.50;;;;;;5073901;28;20201;-92
2021/12/06 13:02:19;;;;;;;51.73;33.43;;;1.00;91.50;;;;;;5073421;28;20170;-91